This demonstration page uses our WeatherBlox Daily Observations layout. Learn more.

Left ArrowRight Arrow

39.92423, -83.80882

Hourly Observations for January 14, 2021

Temp ( °F °C ) Dew Point ( °F °C ) Humidity (%) Winds ( mph kmh ) Pressure ( in mb ) Visibility ( mi km ) Precip ( " mm )
12:56 am 00:56 Cloudy 38 3.3 30 -1.1 73 73 SW 7 11 29.82 1010 10 16.0934 0 0
1:56 am 01:56 Cloudy 37 2.8 29 -1.7 73 73 SW 7 11 29.83 1010 10 16.0934 0 0
2:56 am 02:56 Partly Cloudy 35 1.7 29 -1.7 78 78 SSW 7 11 29.82 1010 10 16.0934 0 0
3:56 am 03:56 Clear 35 1.7 29 -1.7 78 78 SSW 7 11 29.8 1009 10 16.0934 0 0
4:56 am 04:56 Clear 35 1.7 29 -1.7 78 78 SSW 7 11 29.79 1009 10 16.0934 0 0
5:56 am 05:56 Partly Cloudy 34 1.1 29 -1.7 82 82 S 7 11 29.8 1009 10 16.0934 0 0
6:56 am 06:56 Clear 34 1.1 29 -1.7 82 82 S 8 13 29.8 1009 10 16.0934 0 0
7:56 am 07:56 Sunny 32 0 29 -1.7 88 88 S 9 15 29.8 1009 10 16.0934 0 0
8:56 am 08:56 Sunny 33 0.6 30 -1.1 89 89 S 9 15 29.8 1009 10 16.0934 0 0
9:56 am 09:56 Sunny 36 2.2 31 -0.6 82 82 SSW 10 17 29.8 1009 10 16.0934 0 0
10:56 am 10:56 Sunny 38 3.3 32 0 79 79 SSW 13 20 29.8 1009 10 16.0934 0 0
11:56 am 11:56 Sunny 41 5 33 0.6 73 73 S 8 13 29.76 1008 10 16.0934 0 0
1:56 pm 13:56 Sunny 43 6.1 35 1.7 74 74 SSE 10 17 29.69 1005 10 16.0934 0 0
2:56 pm 14:56 Sunny 44 6.7 35 1.7 71 71 SSE 16 26 29.67 1005 10 16.0934 0 0
3:56 pm 15:56 Sunny 43 6.1 34 1.1 71 71 S 12 19 29.67 1005 10 16.0934 0 0
4:56 pm 16:56 Mostly Cloudy 43 6.1 35 1.7 74 74 SE 8 13 29.66 1005 10 16.0934 0 0
5:56 pm 17:56 Partly Cloudy 42 5.6 35 1.7 76 76 SSE 7 11 29.67 1005 10 16.0934 0 0
6:56 pm 18:56 Cloudy 41 5 35 1.7 79 79 SE 8 13 29.65 1004 10 16.0934 0 0
7:56 pm 19:56 Partly Cloudy 38 3.3 33 0.6 83 83 ESE 8 13 29.66 1004 10 16.0934 0 0
8:56 pm 20:56 Partly Cloudy 39 3.9 33 0.6 79 79 ESE 8 13 29.65 1004 10 16.0934 0 0
9:56 pm 21:56 Clear 38 3.3 33 0.6 83 83 SE 8 13 29.64 1004 10 16.0934 0 0
10:56 pm 22:56 Cloudy 40 4.4 33 0.6 77 77 SSE 9 15 29.63 1003 10 16.0934 0 0
11:56 pm 23:56 Cloudy 41 5 33 0.6 73 73 SSE 9 15 29.61 1003 10 16.0934 0 0

Powered by AerisWeather